sensor_id;sensor_type;location;lat;lon;timestamp;P1;durP1;ratioP1;P2;durP2;ratioP2
22270;SDS011;11304;53.520;10.104;2022-10-28T00:02:17;8.00;;;4.90;;
22270;SDS011;11304;53.520;10.104;2022-10-28T00:04:44;8.95;;;5.28;;
22270;SDS011;11304;53.520;10.104;2022-10-28T00:07:10;9.70;;;5.65;;
22270;SDS011;11304;53.520;10.104;2022-10-28T00:09:36;11.15;;;5.05;;
22270;SDS011;11304;53.520;10.104;2022-10-28T00:12:02;11.38;;;4.90;;
22270;SDS011;11304;53.520;10.104;2022-10-28T00:14:28;7.05;;;4.95;;
22270;SDS011;11304;53.520;10.104;2022-10-28T00:16:54;10.57;;;4.88;;
22270;SDS011;11304;53.520;10.104;2022-10-28T00:19:20;9.85;;;5.18;;
22270;SDS011;11304;53.520;10.104;2022-10-28T00:21:46;9.50;;;5.70;;
22270;SDS011;11304;53.520;10.104;2022-10-28T00:24:12;9.45;;;4.93;;
22270;SDS011;11304;53.520;10.104;2022-10-28T00:26:39;13.85;;;5.55;;
22270;SDS011;11304;53.520;10.104;2022-10-28T00:29:11;7.97;;;5.57;;
22270;SDS011;11304;53.520;10.104;2022-10-28T00:31:38;9.53;;;5.23;;
22270;SDS011;11304;53.520;10.104;2022-10-28T00:34:05;10.68;;;5.00;;
22270;SDS011;11304;53.520;10.104;2022-10-28T00:36:32;10.40;;;5.60;;
22270;SDS011;11304;53.520;10.104;2022-10-28T00:38:59;11.85;;;5.68;;
22270;SDS011;11304;53.520;10.104;2022-10-28T00:41:26;9.70;;;5.75;;
22270;SDS011;11304;53.520;10.104;2022-10-28T00:43:54;8.25;;;4.93;;
22270;SDS011;11304;53.520;10.104;2022-10-28T00:48:59;11.00;;;5.40;;
22270;SDS011;11304;53.520;10.104;2022-10-28T00:51:27;7.45;;;5.20;;
22270;SDS011;11304;53.520;10.104;2022-10-28T00:53:54;7.85;;;5.38;;
22270;SDS011;11304;53.520;10.104;2022-10-28T00:56:22;8.88;;;5.00;;
22270;SDS011;11304;53.520;10.104;2022-10-28T00:58:49;9.68;;;5.85;;
22270;SDS011;11304;53.520;10.104;2022-10-28T01:01:16;10.65;;;5.25;;
22270;SDS011;11304;53.520;10.104;2022-10-28T01:03:42;9.50;;;5.40;;
22270;SDS011;11304;53.520;10.104;2022-10-28T01:06:08;8.82;;;5.65;;
22270;SDS011;11304;53.520;10.104;2022-10-28T01:08:35;9.35;;;5.28;;
22270;SDS011;11304;53.520;10.104;2022-10-28T01:11:04;10.82;;;6.05;;
22270;SDS011;11304;53.520;10.104;2022-10-28T01:16:13;7.82;;;5.80;;
22270;SDS011;11304;53.520;10.104;2022-10-28T01:21:27;9.63;;;5.15;;
22270;SDS011;11304;53.520;10.104;2022-10-28T01:41:55;10.55;;;5.68;;
22270;SDS011;11304;53.520;10.104;2022-10-28T01:45:07;9.20;;;5.40;;
22270;SDS011;11304;53.520;10.104;2022-10-28T01:50:14;8.52;;;5.45;;
22270;SDS011;11304;53.520;10.104;2022-10-28T01:52:43;9.63;;;4.85;;
22270;SDS011;11304;53.520;10.104;2022-10-28T01:55:13;11.68;;;5.20;;
22270;SDS011;11304;53.520;10.104;2022-10-28T01:57:40;11.27;;;5.80;;
22270;SDS011;11304;53.520;10.104;2022-10-28T02:00:07;10.23;;;5.30;;
22270;SDS011;11304;53.520;10.104;2022-10-28T02:02:34;9.70;;;5.88;;
22270;SDS011;11304;53.520;10.104;2022-10-28T02:05:44;10.05;;;5.10;;
22270;SDS011;11304;53.520;10.104;2022-10-28T02:07:50;9.05;;;5.13;;
22270;SDS011;11304;53.520;10.104;2022-10-28T02:10:19;12.05;;;6.13;;
22270;SDS011;11304;53.520;10.104;2022-10-28T02:15:25;8.88;;;5.13;;
22270;SDS011;11304;53.520;10.104;2022-10-28T02:23:16;8.57;;;5.75;;
22270;SDS011;11304;53.520;10.104;2022-10-28T02:25:47;9.35;;;6.32;;
22270;SDS011;11304;53.520;10.104;2022-10-28T02:28:18;11.23;;;6.38;;
22270;SDS011;11304;53.520;10.104;2022-10-28T02:30:53;10.23;;;5.68;;
22270;SDS011;11304;53.520;10.104;2022-10-28T02:33:23;9.07;;;5.63;;
22270;SDS011;11304;53.520;10.104;2022-10-28T02:35:51;9.10;;;5.60;;
22270;SDS011;11304;53.520;10.104;2022-10-28T02:38:27;8.55;;;5.53;;
22270;SDS011;11304;53.520;10.104;2022-10-28T02:40:57;8.55;;;5.40;;
22270;SDS011;11304;53.520;10.104;2022-10-28T02:43:25;8.93;;;5.20;;
22270;SDS011;11304;53.520;10.104;2022-10-28T02:45:54;10.57;;;5.80;;
22270;SDS011;11304;53.520;10.104;2022-10-28T02:48:23;8.18;;;5.13;;
22270;SDS011;11304;53.520;10.104;2022-10-28T02:50:59;10.38;;;5.95;;
22270;SDS011;11304;53.520;10.104;2022-10-28T02:53:31;8.15;;;5.68;;
22270;SDS011;11304;53.520;10.104;2022-10-28T02:55:58;13.85;;;5.80;;
22270;SDS011;11304;53.520;10.104;2022-10-28T02:58:25;9.40;;;6.05;;
22270;SDS011;11304;53.520;10.104;2022-10-28T03:00:51;11.55;;;5.80;;
22270;SDS011;11304;53.520;10.104;2022-10-28T03:03:17;8.40;;;5.97;;
22270;SDS011;11304;53.520;10.104;2022-10-28T03:05:43;10.10;;;6.10;;
22270;SDS011;11304;53.520;10.104;2022-10-28T03:08:09;13.88;;;6.63;;
22270;SDS011;11304;53.520;10.104;2022-10-28T03:10:35;15.40;;;7.53;;
22270;SDS011;11304;53.520;10.104;2022-10-28T03:13:01;13.50;;;6.85;;
22270;SDS011;11304;53.520;10.104;2022-10-28T03:15:27;11.70;;;6.50;;
22270;SDS011;11304;53.520;10.104;2022-10-28T03:17:54;10.45;;;6.30;;
22270;SDS011;11304;53.520;10.104;2022-10-28T03:20:20;12.77;;;6.18;;
22270;SDS011;11304;53.520;10.104;2022-10-28T03:22:46;9.05;;;6.03;;
22270;SDS011;11304;53.520;10.104;2022-10-28T03:25:12;8.68;;;5.57;;
22270;SDS011;11304;53.520;10.104;2022-10-28T03:27:38;8.57;;;5.60;;
22270;SDS011;11304;53.520;10.104;2022-10-28T03:30:05;8.35;;;5.97;;
22270;SDS011;11304;53.520;10.104;2022-10-28T03:32:31;10.20;;;5.53;;
22270;SDS011;11304;53.520;10.104;2022-10-28T03:34:57;9.60;;;5.65;;
22270;SDS011;11304;53.520;10.104;2022-10-28T03:37:24;6.57;;;5.40;;
22270;SDS011;11304;53.520;10.104;2022-10-28T03:39:50;11.20;;;6.78;;
22270;SDS011;11304;53.520;10.104;2022-10-28T03:42:16;10.25;;;7.13;;
22270;SDS011;11304;53.520;10.104;2022-10-28T03:44:42;10.70;;;5.97;;
22270;SDS011;11304;53.520;10.104;2022-10-28T03:47:08;9.02;;;6.30;;
22270;SDS011;11304;53.520;10.104;2022-10-28T03:49:34;10.93;;;6.72;;
22270;SDS011;11304;53.520;10.104;2022-10-28T03:52:01;11.15;;;6.47;;
22270;SDS011;11304;53.520;10.104;2022-10-28T03:54:28;13.52;;;6.82;;
22270;SDS011;11304;53.520;10.104;2022-10-28T03:56:54;11.27;;;6.90;;
22270;SDS011;11304;53.520;10.104;2022-10-28T03:59:20;9.73;;;7.47;;
22270;SDS011;11304;53.520;10.104;2022-10-28T04:01:46;13.88;;;7.40;;
22270;SDS011;11304;53.520;10.104;2022-10-28T04:04:13;12.25;;;6.95;;
22270;SDS011;11304;53.520;10.104;2022-10-28T04:06:39;10.68;;;6.80;;
22270;SDS011;11304;53.520;10.104;2022-10-28T04:09:05;11.05;;;6.72;;
22270;SDS011;11304;53.520;10.104;2022-10-28T04:11:31;11.43;;;6.45;;
22270;SDS011;11304;53.520;10.104;2022-10-28T04:13:57;13.73;;;6.50;;
22270;SDS011;11304;53.520;10.104;2022-10-28T04:16:23;17.30;;;7.15;;
22270;SDS011;11304;53.520;10.104;2022-10-28T04:18:49;12.43;;;7.18;;
22270;SDS011;11304;53.520;10.104;2022-10-28T04:21:15;10.02;;;6.88;;
22270;SDS011;11304;53.520;10.104;2022-10-28T04:23:41;10.95;;;7.00;;
22270;SDS011;11304;53.520;10.104;2022-10-28T04:26:08;11.93;;;6.50;;
22270;SDS011;11304;53.520;10.104;2022-10-28T04:28:34;12.45;;;6.80;;
22270;SDS011;11304;53.520;10.104;2022-10-28T04:31:00;13.95;;;6.60;;
22270;SDS011;11304;53.520;10.104;2022-10-28T04:33:27;14.88;;;6.70;;
22270;SDS011;11304;53.520;10.104;2022-10-28T04:35:53;8.23;;;5.40;;
22270;SDS011;11304;53.520;10.104;2022-10-28T04:38:19;13.05;;;6.70;;
22270;SDS011;11304;53.520;10.104;2022-10-28T04:40:46;13.98;;;6.35;;
22270;SDS011;11304;53.520;10.104;2022-10-28T04:43:13;10.70;;;5.97;;
22270;SDS011;11304;53.520;10.104;2022-10-28T04:45:39;8.60;;;5.40;;
22270;SDS011;11304;53.520;10.104;2022-10-28T04:48:05;11.65;;;6.28;;
22270;SDS011;11304;53.520;10.104;2022-10-28T04:50:31;10.98;;;5.90;;
22270;SDS011;11304;53.520;10.104;2022-10-28T04:52:57;11.02;;;5.70;;
22270;SDS011;11304;53.520;10.104;2022-10-28T04:55:23;12.80;;;6.03;;
22270;SDS011;11304;53.520;10.104;2022-10-28T04:57:56;9.93;;;5.88;;
22270;SDS011;11304;53.520;10.104;2022-10-28T05:00:23;17.05;;;6.88;;
22270;SDS011;11304;53.520;10.104;2022-10-28T05:02:49;12.10;;;6.43;;
22270;SDS011;11304;53.520;10.104;2022-10-28T05:05:15;14.60;;;7.07;;
22270;SDS011;11304;53.520;10.104;2022-10-28T05:07:42;14.75;;;6.93;;
22270;SDS011;11304;53.520;10.104;2022-10-28T05:10:08;12.20;;;6.68;;
22270;SDS011;11304;53.520;10.104;2022-10-28T05:12:36;14.27;;;6.28;;
22270;SDS011;11304;53.520;10.104;2022-10-28T05:15:02;13.95;;;6.50;;
22270;SDS011;11304;53.520;10.104;2022-10-28T05:17:28;11.07;;;5.78;;
22270;SDS011;11304;53.520;10.104;2022-10-28T05:19:54;12.80;;;6.40;;
22270;SDS011;11304;53.520;10.104;2022-10-28T05:22:20;10.60;;;6.63;;
22270;SDS011;11304;53.520;10.104;2022-10-28T05:24:46;11.45;;;6.35;;
22270;SDS011;11304;53.520;10.104;2022-10-28T05:27:12;12.05;;;6.13;;
22270;SDS011;11304;53.520;10.104;2022-10-28T05:29:38;11.52;;;6.45;;
22270;SDS011;11304;53.520;10.104;2022-10-28T05:32:04;11.13;;;6.25;;
22270;SDS011;11304;53.520;10.104;2022-10-28T05:34:30;11.55;;;6.63;;
22270;SDS011;11304;53.520;10.104;2022-10-28T05:36:57;13.38;;;6.47;;
22270;SDS011;11304;53.520;10.104;2022-10-28T05:39:23;8.85;;;5.90;;
22270;SDS011;11304;53.520;10.104;2022-10-28T05:41:49;10.65;;;6.60;;
22270;SDS011;11304;53.520;10.104;2022-10-28T05:44:15;12.80;;;6.88;;
22270;SDS011;11304;53.520;10.104;2022-10-28T05:46:41;11.32;;;6.38;;
22270;SDS011;11304;53.520;10.104;2022-10-28T05:49:07;14.02;;;6.45;;
22270;SDS011;11304;53.520;10.104;2022-10-28T05:51:33;13.98;;;6.60;;
22270;SDS011;11304;53.520;10.104;2022-10-28T05:53:59;11.95;;;6.55;;
22270;SDS011;11304;53.520;10.104;2022-10-28T05:56:25;14.10;;;7.00;;
22270;SDS011;11304;53.520;10.104;2022-10-28T05:58:51;9.82;;;5.82;;
22270;SDS011;11304;53.520;10.104;2022-10-28T06:01:17;15.85;;;6.15;;
22270;SDS011;11304;53.520;10.104;2022-10-28T06:03:43;10.27;;;6.70;;
22270;SDS011;11304;53.520;10.104;2022-10-28T06:06:10;12.15;;;6.60;;
22270;SDS011;11304;53.520;10.104;2022-10-28T06:08:36;13.15;;;7.03;;
22270;SDS011;11304;53.520;10.104;2022-10-28T06:11:02;11.88;;;6.75;;
22270;SDS011;11304;53.520;10.104;2022-10-28T06:13:28;10.02;;;5.95;;
22270;SDS011;11304;53.520;10.104;2022-10-28T06:15:54;11.50;;;7.05;;
22270;SDS011;11304;53.520;10.104;2022-10-28T06:18:21;12.77;;;6.97;;
22270;SDS011;11304;53.520;10.104;2022-10-28T06:20:54;14.90;;;7.18;;
22270;SDS011;11304;53.520;10.104;2022-10-28T06:23:21;16.23;;;6.78;;
22270;SDS011;11304;53.520;10.104;2022-10-28T06:25:47;17.23;;;6.20;;
22270;SDS011;11304;53.520;10.104;2022-10-28T06:28:13;15.30;;;6.00;;
22270;SDS011;11304;53.520;10.104;2022-10-28T06:30:39;9.93;;;6.43;;
22270;SDS011;11304;53.520;10.104;2022-10-28T06:33:05;15.02;;;6.25;;
22270;SDS011;11304;53.520;10.104;2022-10-28T06:35:31;13.60;;;6.25;;
22270;SDS011;11304;53.520;10.104;2022-10-28T06:37:57;15.65;;;6.53;;
22270;SDS011;11304;53.520;10.104;2022-10-28T06:40:24;13.27;;;6.30;;
22270;SDS011;11304;53.520;10.104;2022-10-28T06:43:00;15.57;;;7.28;;
22270;SDS011;11304;53.520;10.104;2022-10-28T06:45:29;13.32;;;6.88;;
22270;SDS011;11304;53.520;10.104;2022-10-28T06:47:57;15.65;;;6.35;;
22270;SDS011;11304;53.520;10.104;2022-10-28T06:50:23;16.10;;;6.85;;
22270;SDS011;11304;53.520;10.104;2022-10-28T06:52:50;12.77;;;6.53;;
22270;SDS011;11304;53.520;10.104;2022-10-28T06:55:16;12.77;;;6.45;;
22270;SDS011;11304;53.520;10.104;2022-10-28T06:57:42;15.20;;;8.60;;
22270;SDS011;11304;53.520;10.104;2022-10-28T07:00:08;19.30;;;9.07;;
22270;SDS011;11304;53.520;10.104;2022-10-28T07:02:34;17.02;;;9.20;;
22270;SDS011;11304;53.520;10.104;2022-10-28T07:05:01;17.02;;;8.52;;
22270;SDS011;11304;53.520;10.104;2022-10-28T07:07:27;13.90;;;8.32;;
22270;SDS011;11304;53.520;10.104;2022-10-28T07:09:53;12.70;;;7.78;;
22270;SDS011;11304;53.520;10.104;2022-10-28T07:12:19;19.65;;;8.73;;
22270;SDS011;11304;53.520;10.104;2022-10-28T07:14:45;16.73;;;8.77;;
22270;SDS011;11304;53.520;10.104;2022-10-28T07:17:11;19.63;;;8.65;;
22270;SDS011;11304;53.520;10.104;2022-10-28T07:19:37;16.02;;;8.95;;
22270;SDS011;11304;53.520;10.104;2022-10-28T07:22:03;14.27;;;9.10;;
22270;SDS011;11304;53.520;10.104;2022-10-28T07:24:29;20.52;;;9.32;;
22270;SDS011;11304;53.520;10.104;2022-10-28T07:26:55;22.65;;;9.57;;
22270;SDS011;11304;53.520;10.104;2022-10-28T07:29:21;18.50;;;9.43;;
22270;SDS011;11304;53.520;10.104;2022-10-28T07:31:47;16.90;;;8.32;;
22270;SDS011;11304;53.520;10.104;2022-10-28T07:34:14;20.70;;;8.23;;
22270;SDS011;11304;53.520;10.104;2022-10-28T07:36:40;16.70;;;8.18;;
22270;SDS011;11304;53.520;10.104;2022-10-28T07:39:06;21.08;;;8.13;;
22270;SDS011;11304;53.520;10.104;2022-10-28T07:41:32;16.00;;;7.63;;
22270;SDS011;11304;53.520;10.104;2022-10-28T07:43:58;10.18;;;6.45;;
22270;SDS011;11304;53.520;10.104;2022-10-28T07:46:24;16.25;;;6.80;;
22270;SDS011;11304;53.520;10.104;2022-10-28T07:48:50;9.98;;;6.25;;
22270;SDS011;11304;53.520;10.104;2022-10-28T07:51:16;13.15;;;6.85;;
22270;SDS011;11304;53.520;10.104;2022-10-28T07:53:42;14.63;;;6.80;;
22270;SDS011;11304;53.520;10.104;2022-10-28T07:56:09;14.05;;;6.35;;
22270;SDS011;11304;53.520;10.104;2022-10-28T07:58:39;15.10;;;6.25;;
22270;SDS011;11304;53.520;10.104;2022-10-28T08:01:06;12.00;;;6.22;;
22270;SDS011;11304;53.520;10.104;2022-10-28T08:03:32;10.70;;;5.60;;
22270;SDS011;11304;53.520;10.104;2022-10-28T08:05:59;10.43;;;5.75;;
22270;SDS011;11304;53.520;10.104;2022-10-28T08:08:26;10.20;;;5.75;;
22270;SDS011;11304;53.520;10.104;2022-10-28T08:10:52;12.00;;;5.10;;
22270;SDS011;11304;53.520;10.104;2022-10-28T08:13:18;10.63;;;5.50;;
22270;SDS011;11304;53.520;10.104;2022-10-28T08:15:50;10.15;;;5.43;;
22270;SDS011;11304;53.520;10.104;2022-10-28T08:18:16;12.30;;;5.32;;
22270;SDS011;11304;53.520;10.104;2022-10-28T08:20:42;14.98;;;4.95;;
22270;SDS011;11304;53.520;10.104;2022-10-28T08:23:08;11.30;;;5.40;;
22270;SDS011;11304;53.520;10.104;2022-10-28T08:25:34;10.07;;;4.60;;
22270;SDS011;11304;53.520;10.104;2022-10-28T08:28:00;11.52;;;5.13;;
22270;SDS011;11304;53.520;10.104;2022-10-28T08:30:26;8.88;;;4.80;;
22270;SDS011;11304;53.520;10.104;2022-10-28T08:32:53;9.18;;;4.43;;
22270;SDS011;11304;53.520;10.104;2022-10-28T08:35:20;10.05;;;4.90;;
22270;SDS011;11304;53.520;10.104;2022-10-28T08:37:49;10.70;;;4.50;;
22270;SDS011;11304;53.520;10.104;2022-10-28T08:40:15;14.07;;;4.90;;
22270;SDS011;11304;53.520;10.104;2022-10-28T08:42:48;8.60;;;4.55;;
22270;SDS011;11304;53.520;10.104;2022-10-28T08:50:25;9.50;;;4.80;;
22270;SDS011;11304;53.520;10.104;2022-10-28T08:52:57;9.68;;;4.72;;
22270;SDS011;11304;53.520;10.104;2022-10-28T08:55:34;12.13;;;4.78;;
22270;SDS011;11304;53.520;10.104;2022-10-28T09:00:48;14.73;;;5.30;;
22270;SDS011;11304;53.520;10.104;2022-10-28T09:03:16;10.45;;;4.93;;
22270;SDS011;11304;53.520;10.104;2022-10-28T09:05:46;11.15;;;4.50;;
22270;SDS011;11304;53.520;10.104;2022-10-28T09:08:24;11.05;;;4.53;;
22270;SDS011;11304;53.520;10.104;2022-10-28T09:11:11;13.75;;;4.50;;
22270;SDS011;11304;53.520;10.104;2022-10-28T09:18:51;9.95;;;4.50;;
22270;SDS011;11304;53.520;10.104;2022-10-28T09:22:07;10.80;;;4.55;;
22270;SDS011;11304;53.520;10.104;2022-10-28T09:24:28;10.05;;;4.40;;
22270;SDS011;11304;53.520;10.104;2022-10-28T09:26:56;15.43;;;4.40;;
22270;SDS011;11304;53.520;10.104;2022-10-28T09:32:23;12.13;;;4.75;;
22270;SDS011;11304;53.520;10.104;2022-10-28T09:34:53;10.25;;;4.15;;
22270;SDS011;11304;53.520;10.104;2022-10-28T09:37:28;13.15;;;4.03;;
22270;SDS011;11304;53.520;10.104;2022-10-28T09:39:56;9.32;;;3.80;;
22270;SDS011;11304;53.520;10.104;2022-10-28T09:42:29;9.63;;;4.20;;
22270;SDS011;11304;53.520;10.104;2022-10-28T09:45:02;12.35;;;3.67;;
22270;SDS011;11304;53.520;10.104;2022-10-28T09:47:36;15.35;;;4.18;;
22270;SDS011;11304;53.520;10.104;2022-10-28T09:50:04;12.98;;;4.25;;
22270;SDS011;11304;53.520;10.104;2022-10-28T09:52:33;12.02;;;3.92;;
22270;SDS011;11304;53.520;10.104;2022-10-28T09:55:03;15.45;;;4.40;;
22270;SDS011;11304;53.520;10.104;2022-10-28T09:57:32;10.15;;;3.38;;
22270;SDS011;11304;53.520;10.104;2022-10-28T09:59:58;13.23;;;3.28;;
22270;SDS011;11304;53.520;10.104;2022-10-28T10:02:26;14.20;;;4.00;;
22270;SDS011;11304;53.520;10.104;2022-10-28T10:04:53;11.30;;;3.95;;
22270;SDS011;11304;53.520;10.104;2022-10-28T10:09:55;12.02;;;3.75;;
22270;SDS011;11304;53.520;10.104;2022-10-28T10:12:22;12.45;;;3.80;;
22270;SDS011;11304;53.520;10.104;2022-10-28T10:14:49;12.98;;;3.67;;
22270;SDS011;11304;53.520;10.104;2022-10-28T10:17:17;10.60;;;3.50;;
22270;SDS011;11304;53.520;10.104;2022-10-28T10:22:30;8.48;;;3.42;;
22270;SDS011;11304;53.520;10.104;2022-10-28T10:24:56;11.30;;;3.42;;
22270;SDS011;11304;53.520;10.104;2022-10-28T10:27:22;15.90;;;3.40;;
22270;SDS011;11304;53.520;10.104;2022-10-28T10:29:50;10.77;;;3.43;;
22270;SDS011;11304;53.520;10.104;2022-10-28T10:34:49;13.60;;;3.78;;
22270;SDS011;11304;53.520;10.104;2022-10-28T10:37:19;9.18;;;3.28;;
22270;SDS011;11304;53.520;10.104;2022-10-28T10:39:57;12.70;;;3.80;;
22270;SDS011;11304;53.520;10.104;2022-10-28T10:42:23;9.18;;;3.50;;
22270;SDS011;11304;53.520;10.104;2022-10-28T10:44:58;15.80;;;3.88;;
22270;SDS011;11304;53.520;10.104;2022-10-28T10:47:24;11.88;;;3.70;;
22270;SDS011;11304;53.520;10.104;2022-10-28T10:49:51;15.98;;;3.55;;
22270;SDS011;11304;53.520;10.104;2022-10-28T10:52:22;10.30;;;3.58;;
22270;SDS011;11304;53.520;10.104;2022-10-28T10:54:57;15.80;;;3.30;;
22270;SDS011;11304;53.520;10.104;2022-10-28T10:57:23;13.20;;;3.60;;
22270;SDS011;11304;53.520;10.104;2022-10-28T10:59:50;9.32;;;3.17;;
22270;SDS011;11304;53.520;10.104;2022-10-28T11:02:22;9.93;;;3.67;;
22270;SDS011;11304;53.520;10.104;2022-10-28T11:04:50;13.02;;;3.10;;
22270;SDS011;11304;53.520;10.104;2022-10-28T11:07:16;14.10;;;3.42;;
22270;SDS011;11304;53.520;10.104;2022-10-28T11:09:45;7.28;;;3.15;;
22270;SDS011;11304;53.520;10.104;2022-10-28T11:12:15;14.45;;;3.80;;
22270;SDS011;11304;53.520;10.104;2022-10-28T11:14:54;12.40;;;4.33;;
22270;SDS011;11304;53.520;10.104;2022-10-28T11:17:22;9.13;;;4.13;;
22270;SDS011;11304;53.520;10.104;2022-10-28T11:19:49;9.67;;;3.30;;
22270;SDS011;11304;53.520;10.104;2022-10-28T11:24:53;15.88;;;4.20;;
22270;SDS011;11304;53.520;10.104;2022-10-28T11:30:04;9.13;;;3.17;;
22270;SDS011;11304;53.520;10.104;2022-10-28T11:35:54;12.98;;;3.38;;
22270;SDS011;11304;53.520;10.104;2022-10-28T11:43:10;12.02;;;3.33;;
22270;SDS011;11304;53.520;10.104;2022-10-28T11:56:07;13.20;;;3.72;;
22270;SDS011;11304;53.520;10.104;2022-10-28T11:58:59;16.15;;;4.05;;
22270;SDS011;11304;53.520;10.104;2022-10-28T12:10:12;21.77;;;4.00;;
22270;SDS011;11304;53.520;10.104;2022-10-28T12:12:12;15.40;;;3.92;;
22270;SDS011;11304;53.520;10.104;2022-10-28T12:14:47;14.82;;;4.10;;
22270;SDS011;11304;53.520;10.104;2022-10-28T12:17:34;11.98;;;3.78;;
22270;SDS011;11304;53.520;10.104;2022-10-28T12:20:15;16.90;;;4.20;;
22270;SDS011;11304;53.520;10.104;2022-10-28T12:25:18;12.82;;;3.60;;
22270;SDS011;11304;53.520;10.104;2022-10-28T12:27:48;15.13;;;3.97;;
22270;SDS011;11304;53.520;10.104;2022-10-28T12:30:17;11.73;;;2.60;;
22270;SDS011;11304;53.520;10.104;2022-10-28T12:32:45;11.73;;;3.67;;
22270;SDS011;11304;53.520;10.104;2022-10-28T12:35:15;17.67;;;4.25;;
22270;SDS011;11304;53.520;10.104;2022-10-28T12:37:50;13.88;;;3.55;;
22270;SDS011;11304;53.520;10.104;2022-10-28T12:40:21;13.00;;;4.05;;
22270;SDS011;11304;53.520;10.104;2022-10-28T12:42:51;16.52;;;4.20;;
22270;SDS011;11304;53.520;10.104;2022-10-28T12:45:18;14.57;;;3.70;;
22270;SDS011;11304;53.520;10.104;2022-10-28T12:48:00;12.30;;;3.72;;
22270;SDS011;11304;53.520;10.104;2022-10-28T12:50:30;9.85;;;2.97;;
22270;SDS011;11304;53.520;10.104;2022-10-28T12:55:46;8.95;;;3.50;;
22270;SDS011;11304;53.520;10.104;2022-10-28T12:58:17;15.70;;;3.65;;
22270;SDS011;11304;53.520;10.104;2022-10-28T13:00:59;12.80;;;3.47;;
22270;SDS011;11304;53.520;10.104;2022-10-28T13:03:26;12.73;;;4.07;;
22270;SDS011;11304;53.520;10.104;2022-10-28T13:05:55;13.50;;;3.75;;
22270;SDS011;11304;53.520;10.104;2022-10-28T13:08:41;16.40;;;4.25;;
22270;SDS011;11304;53.520;10.104;2022-10-28T13:13:57;18.50;;;4.05;;
22270;SDS011;11304;53.520;10.104;2022-10-28T13:24:24;18.92;;;3.67;;
22270;SDS011;11304;53.520;10.104;2022-10-28T13:26:53;11.65;;;4.05;;
22270;SDS011;11304;53.520;10.104;2022-10-28T13:29:23;10.45;;;3.30;;
22270;SDS011;11304;53.520;10.104;2022-10-28T13:31:50;9.95;;;3.67;;
22270;SDS011;11304;53.520;10.104;2022-10-28T13:34:18;11.90;;;3.67;;
22270;SDS011;11304;53.520;10.104;2022-10-28T13:36:46;10.32;;;3.30;;
22270;SDS011;11304;53.520;10.104;2022-10-28T13:39:23;10.55;;;3.42;;
22270;SDS011;11304;53.520;10.104;2022-10-28T13:42:28;14.23;;;3.33;;
22270;SDS011;11304;53.520;10.104;2022-10-28T13:47:30;18.98;;;4.13;;
22270;SDS011;11304;53.520;10.104;2022-10-28T13:52:38;9.80;;;3.22;;
22270;SDS011;11304;53.520;10.104;2022-10-28T13:55:24;10.90;;;3.45;;
22270;SDS011;11304;53.520;10.104;2022-10-28T13:57:57;7.55;;;2.90;;
22270;SDS011;11304;53.520;10.104;2022-10-28T14:03:01;10.60;;;3.55;;
22270;SDS011;11304;53.520;10.104;2022-10-28T14:08:06;11.57;;;3.40;;
22270;SDS011;11304;53.520;10.104;2022-10-28T14:10:35;11.38;;;3.72;;
22270;SDS011;11304;53.520;10.104;2022-10-28T14:13:02;11.38;;;3.80;;
22270;SDS011;11304;53.520;10.104;2022-10-28T14:15:31;17.58;;;4.45;;
22270;SDS011;11304;53.520;10.104;2022-10-28T14:17:59;7.63;;;3.40;;
22270;SDS011;11304;53.520;10.104;2022-10-28T14:22:54;9.65;;;3.50;;
22270;SDS011;11304;53.520;10.104;2022-10-28T14:49:13;12.63;;;4.28;;
22270;SDS011;11304;53.520;10.104;2022-10-28T14:51:41;11.68;;;4.18;;
22270;SDS011;11304;53.520;10.104;2022-10-28T14:54:16;12.18;;;3.80;;
22270;SDS011;11304;53.520;10.104;2022-10-28T14:56:43;10.57;;;3.55;;
22270;SDS011;11304;53.520;10.104;2022-10-28T15:01:49;10.77;;;3.75;;
22270;SDS011;11304;53.520;10.104;2022-10-28T15:04:19;9.55;;;3.83;;
22270;SDS011;11304;53.520;10.104;2022-10-28T15:06:45;11.77;;;3.63;;
22270;SDS011;11304;53.520;10.104;2022-10-28T15:11:38;16.70;;;4.88;;
22270;SDS011;11304;53.520;10.104;2022-10-28T15:14:13;10.35;;;4.00;;
22270;SDS011;11304;53.520;10.104;2022-10-28T15:16:46;11.35;;;4.80;;
22270;SDS011;11304;53.520;10.104;2022-10-28T15:19:13;10.90;;;3.95;;
22270;SDS011;11304;53.520;10.104;2022-10-28T15:21:41;9.90;;;3.90;;
22270;SDS011;11304;53.520;10.104;2022-10-28T15:24:11;14.38;;;4.65;;
22270;SDS011;11304;53.520;10.104;2022-10-28T15:26:38;8.48;;;3.65;;
22270;SDS011;11304;53.520;10.104;2022-10-28T15:29:04;12.63;;;3.92;;
22270;SDS011;11304;53.520;10.104;2022-10-28T15:31:30;8.70;;;3.83;;
22270;SDS011;11304;53.520;10.104;2022-10-28T15:33:56;15.40;;;3.97;;
22270;SDS011;11304;53.520;10.104;2022-10-28T15:36:23;9.13;;;3.95;;
22270;SDS011;11304;53.520;10.104;2022-10-28T15:39:13;6.95;;;3.67;;
22270;SDS011;11304;53.520;10.104;2022-10-28T15:41:41;7.82;;;3.60;;
22270;SDS011;11304;53.520;10.104;2022-10-28T15:44:28;7.18;;;3.65;;
22270;SDS011;11304;53.520;10.104;2022-10-28T15:46:55;13.13;;;4.50;;
22270;SDS011;11304;53.520;10.104;2022-10-28T15:49:30;14.15;;;4.63;;
22270;SDS011;11304;53.520;10.104;2022-10-28T15:54:54;7.35;;;4.47;;
22270;SDS011;11304;53.520;10.104;2022-10-28T15:57:22;7.75;;;3.53;;
22270;SDS011;11304;53.520;10.104;2022-10-28T15:59:48;10.63;;;4.07;;
22270;SDS011;11304;53.520;10.104;2022-10-28T16:02:41;15.68;;;5.28;;
22270;SDS011;11304;53.520;10.104;2022-10-28T16:07:52;12.23;;;5.00;;
22270;SDS011;11304;53.520;10.104;2022-10-28T16:10:18;16.05;;;4.85;;
22270;SDS011;11304;53.520;10.104;2022-10-28T16:12:44;15.68;;;4.93;;
22270;SDS011;11304;53.520;10.104;2022-10-28T16:15:13;13.95;;;5.30;;
22270;SDS011;11304;53.520;10.104;2022-10-28T16:17:41;11.95;;;5.07;;
22270;SDS011;11304;53.520;10.104;2022-10-28T16:20:11;8.30;;;3.95;;
22270;SDS011;11304;53.520;10.104;2022-10-28T16:22:38;9.70;;;3.85;;
22270;SDS011;11304;53.520;10.104;2022-10-28T16:25:07;5.72;;;3.25;;
22270;SDS011;11304;53.520;10.104;2022-10-28T16:27:36;7.75;;;3.45;;
22270;SDS011;11304;53.520;10.104;2022-10-28T16:30:03;10.38;;;5.20;;
22270;SDS011;11304;53.520;10.104;2022-10-28T16:32:33;10.70;;;4.53;;
22270;SDS011;11304;53.520;10.104;2022-10-28T16:34:59;9.82;;;4.50;;
22270;SDS011;11304;53.520;10.104;2022-10-28T16:37:27;10.70;;;4.28;;
22270;SDS011;11304;53.520;10.104;2022-10-28T16:39:53;12.32;;;4.30;;
22270;SDS011;11304;53.520;10.104;2022-10-28T16:42:21;7.78;;;3.80;;
22270;SDS011;11304;53.520;10.104;2022-10-28T16:44:47;13.15;;;4.90;;
22270;SDS011;11304;53.520;10.104;2022-10-28T16:47:14;9.80;;;3.85;;
22270;SDS011;11304;53.520;10.104;2022-10-28T16:49:41;5.35;;;2.90;;
22270;SDS011;11304;53.520;10.104;2022-10-28T16:52:12;7.72;;;3.28;;
22270;SDS011;11304;53.520;10.104;2022-10-28T16:54:39;7.50;;;3.55;;
22270;SDS011;11304;53.520;10.104;2022-10-28T16:57:05;6.15;;;2.55;;
22270;SDS011;11304;53.520;10.104;2022-10-28T16:59:31;6.95;;;2.80;;
22270;SDS011;11304;53.520;10.104;2022-10-28T17:01:57;7.25;;;2.88;;
22270;SDS011;11304;53.520;10.104;2022-10-28T17:04:24;18.38;;;5.40;;
22270;SDS011;11304;53.520;10.104;2022-10-28T17:06:50;19.33;;;6.32;;
22270;SDS011;11304;53.520;10.104;2022-10-28T17:09:16;17.77;;;5.57;;
22270;SDS011;11304;53.520;10.104;2022-10-28T17:11:42;11.07;;;5.20;;